Latest Coastal Weather Observations for Double Island Point

IDQ60701

Issued at 3:42 am EST Saturday 4 April 2020 (issued every 10 minutes, with the page automatically refreshed every 10 minutes)

About coastal observations | Map of coastal stations | Coastal observations for QLD | Marine services | Other Formats
Station Details ID: 040068 Name: DOUBLE ISLAND POINT LIGHTHOUSE Lat: -25.93 Lon: 153.19 Height: 95.64 m
Data from the previous 72 hours. | See also: Recent months at Double Island Point
Date/Time
EST
Wind Sea
Height
m
Swell Vis
km
Cloud Weather Temp
°C
Press
hPa
Rain since
9am
mm
Dir  Spd
kts
Gust
kts
Height
m
Period
s
Dir
04/03:30am NNW 5 8 - - - - - - - 23.8 1008.9 0.0
04/03:00am N 6 11 - - - - - - - 23.9 1009.0 0.0
04/02:30am N 4 6 - - - - - - - 24.0 1009.2 0.0
04/02:00am NNE 5 12 - - - - - - - 24.0 1009.3 0.0
04/01:30am N 8 16 - - - - - - - 24.1 1009.4 0.0
04/01:00am N 5 8 - - - - - - - 24.2 1009.9 0.0
04/12:30am N 5 13 - - - - - - - 24.3 1010.1 0.0
04/12:00am N 5 14 - - - - - - - 24.2 1010.2 0.0
 
Date/Time
EST
Wind Sea
Height
m
Swell Vis
km
Cloud Weather Temp
°C
Press
hPa
Rain since
9am
mm
Dir  Spd
kts
Gust
kts
Height
m
Period
s
Dir
03/11:30pm NNW 4 12 - - - - - - - 24.1 1010.6 0.0
03/11:00pm NNW 4 5 - - - - - - - 24.1 1011.0 0.0
03/10:30pm NE 4 11 - - - - - - - 24.2 1011.1 0.0
03/10:00pm NNW 6 12 - - - - - - - 24.3 1011.2 0.0
03/09:30pm N 7 16 - - - - - - - 24.3 1011.4 0.0
03/09:00pm N 7 14 - - - - - - - 24.4 1011.5 0.0
03/08:30pm N 8 15 - - - - - - - 24.4 1011.4 0.0
03/08:00pm N 7 12 - - - - - - - 24.5 1011.4 0.0
03/07:30pm N 9 16 - - - - - - - 24.5 1011.1 0.0
03/07:00pm NNE 10 15 - - - - - - - 24.4 1011.0 0.0
03/06:30pm NNE 13 15 - - - - - - - 24.4 1010.6 0.0
03/06:00pm NNE 14 15 - - - - - - - 24.4 1010.3 0.0
03/05:30pm NNE 11 13 - - - - - - - 24.8 1010.2 0.0
03/05:00pm NNE 11 14 - - - - - - - 26.1 1009.9 0.0
03/04:30pm NNE 10 14 - - - - - - - 27.0 1009.7 0.0
03/04:00pm NNE 11 13 - - - - - - - 27.4 1009.6 0.0
03/03:30pm NNE 9 11 - - - - - - - 28.6 1009.5 0.0
03/03:00pm NNE 6 9 - - - - - - - 29.4 1009.7 0.0
03/02:30pm NNE 6 8 - - - - - - - 29.5 1010.1 0.0
03/02:00pm NNE 5 9 - - - - - - - 28.5 1010.2 0.0
03/01:30pm NNE 8 9 - - - - - - - 29.7 1010.4 0.0
03/01:00pm NNE 7 9 - - - - - - - 29.8 1010.6 0.0
03/12:30pm NNE 6 9 - - - - - - - 29.3 1010.9 0.0
03/12:00pm NE 3 5 - - - - - - - 28.5 1011.8 0.0
03/11:30am ENE 4 5 - - - - - - - 28.7 1012.1 0.0
03/11:00am ENE 4 6 - - - - - - - 27.8 1012.4 0.0
03/10:30am ENE 4 5 - - - - - - - 27.6 1012.8 0.0
03/10:00am ENE 4 6 - - - - - - - 27.2 1013.1 0.0
03/09:30am ENE 4 6 - - - - - - - 26.0 1013.0 0.0
03/09:00am ENE 5 7 - - - - - - - 25.4 1013.1 0.2
03/08:30am ENE 6 7 - - - - - - - 24.8 1013.3 0.2
03/08:00am ENE 5 6 - - - - - - - 24.3 1013.1 0.2
03/07:30am ENE 6 7 - - - - - - - 23.1 1012.9 0.2
03/07:00am ENE 6 7 - - - - - - - 22.5 1012.6 0.2
03/06:30am ENE 4 5 - - - - - - - 22.6 1012.4 0.2
03/06:00am ENE 6 6 - - - - - - - 22.1 1012.1 0.2
03/05:30am ENE 5 5 - - - - - - - 22.1 1012.1 0.2
03/05:00am ENE 5 6 - - - - - - - 22.2 1011.9 0.2
03/04:30am ENE 7 8 - - - - - - - 22.2 1011.8 0.2
03/04:00am ENE 6 7 - - - - - - - 22.1 1011.7 0.2
03/03:30am ENE 7 8 - - - - - - - 22.3 1011.7 0.2
03/03:00am ENE 7 8 - - - - - - - 22.2 1011.8 0.2
03/02:30am ENE 7 7 - - - - - - - 22.1 1012.1 0.2
03/02:00am ENE 6 7 - - - - - - - 22.4 1012.1 0.2
03/01:30am ENE 4 5 - - - - - - - 22.5 1012.2 0.2
03/01:00am ENE 4 5 - - - - - - - 22.7 1012.7 0.2
03/12:30am ENE 4 5 - - - - - - - 22.8 1013.2 0.2
03/12:00am ENE 5 5 - - - - - - - 22.7 1013.4 0.2
 
Date/Time
EST
Wind Sea
Height
m
Swell Vis
km
Cloud Weather Temp
°C
Press
hPa
Rain since
9am
mm
Dir  Spd
kts
Gust
kts
Height
m
Period
s
Dir
02/11:30pm ENE 4 5 - - - - - - - 23.0 1013.6 0.2
02/11:00pm ENE 3 4 - - - - - - - 23.4 1014.0 0.2
02/10:30pm ENE 3 4 - - - - - - - 23.3 1014.2 0.2
02/10:00pm ENE 3 4 - - - - - - - 23.4 1014.2 0.2
02/09:30pm ENE 5 7 - - - - - - - 23.5 1014.1 0.2
02/09:00pm ENE 6 8 - - - - - - - 23.5 1013.7 0.2
02/08:30pm NNE 4 5 - - - - - - - 23.5 1013.7 0.2
02/08:00pm NNE 5 6 - - - - - - - 23.3 1013.7 0.2
02/07:30pm NNE 3 4 - - - - - - - 23.5 1013.9 0.2
02/07:00pm NNE 4 6 - - - - - - - 23.4 1013.6 0.2
02/06:30pm NNE 4 7 - - - - - - - 23.2 1013.5 0.2
02/06:00pm NE 5 8 - - - - - - - 23.3 1013.5 0.2
02/05:30pm NE 5 8 - - - - - - - 23.9 1013.5 0.2
02/05:00pm ENE 7 9 - - - - - - - 24.1 1013.5 0.2
02/04:30pm ENE 8 11 - - - - - - - 24.2 1013.5 0.2
02/04:00pm ENE 8 9 - - - - - - - 24.6 1013.3 0.2
02/03:30pm ENE 6 8 - - - - - - - 24.9 1013.2 0.2
02/03:00pm ENE 5 8 - - - - - - - 25.5 1013.2 0.2
02/02:30pm SE 6 7 - - - - - - - 25.6 1013.3 0.2
02/02:00pm SE 7 9 - - - - - - - 26.4 1013.6 0.2
02/01:30pm ESE 6 7 - - - - - - - 26.1 1013.9 0.2
02/01:00pm SE 8 9 - - - - - - - 25.9 1014.2 0.2
02/12:30pm ESE 7 9 - - - - - - - 26.1 1014.4 0.2
02/12:00pm SE 9 11 - - - - - - - 26.2 1014.6 0.2
02/11:30am SE 14 16 - - - - - - - 26.1 1015.0 0.2
02/11:00am SE 10 12 - - - - - - - 26.8 1015.4 0.2
02/10:30am SE 9 10 - - - - - - - 26.6 1015.6 0.2
02/10:00am SE 6 8 - - - - - - - 26.1 1015.6 0.2
02/09:30am ESE 7 8 - - - - - - - 26.0 1015.7 0.0
02/09:00am E 7 8 - - - - - - - 25.4 1015.7 1.6
02/08:30am ESE 9 12 - - - - - - - 24.5 1015.7 1.6
02/08:00am ESE 12 14 - - - - - - - 24.3 1015.7 1.6
02/07:30am E 9 11 - - - - - - - 24.2 1015.4 1.6
02/07:00am E 9 11 - - - - - - - 23.1 1014.9 1.6
02/06:30am E 11 14 - - - - - - - 23.0 1014.9 1.6
02/06:00am SE 14 17 - - - - - - - 23.0 1014.6 1.6
02/05:30am ESE 9 11 - - - - - - - 22.6 1014.6 1.6
02/05:00am E 14 17 - - - - - - - 22.7 1014.5 1.6
02/04:30am ESE 12 15 - - - - - - - 22.8 1014.4 1.6
02/04:00am SSE 7 11 - - - - - - - 22.7 1014.2 1.0
02/03:30am ESE 9 11 - - - - - - - 23.3 1014.0 0.2
02/03:00am ESE 8 9 - - - - - - - 23.2 1014.0 0.2
02/02:30am ESE 6 8 - - - - - - - 23.2 1014.5 0.2
02/02:00am ESE 10 13 - - - - - - - 23.6 1014.9 0.2
02/01:30am ESE 10 11 - - - - - - - 23.4 1015.0 0.2
02/01:00am SE 11 11 - - - - - - - 23.6 1015.6 0.2
02/12:30am SSE 13 15 - - - - - - - 23.4 1015.8 0.2
02/12:00am ESE 10 11 - - - - - - - 24.0 1016.3 0.2
 
Date/Time
EST
Wind Sea
Height
m
Swell Vis
km
Cloud Weather Temp
°C
Press
hPa
Rain since
9am
mm
Dir  Spd
kts
Gust
kts
Height
m
Period
s
Dir
01/11:30pm SE 9 11 - - - - - - - 24.1 1016.3 0.2
01/11:00pm SE 11 12 - - - - - - - 24.0 1016.3 0.2
01/10:30pm SE 13 15 - - - - - - - 24.0 1016.4 0.2
01/10:00pm SE 11 12 - - - - - - - 24.0 1016.5 0.2
01/09:30pm ESE 10 12 - - - - - - - 24.1 1016.5 0.2
01/09:00pm ESE 12 14 - - - - - - - 24.2 1016.5 0.2
01/08:30pm SE 13 16 - - - - - - - 24.2 1016.3 0.2
01/08:00pm SE 14 17 - - - - - - - 24.2 1016.1 0.2
01/07:30pm SE 13 17 - - - - - - - 24.2 1015.8 0.2
01/07:00pm SE 17 19 - - - - - - - 24.3 1015.6 0.2
01/06:30pm SE 16 17 - - - - - - - 24.4 1015.3 0.2
01/06:00pm SSE 13 16 - - - - - - - 24.3 1015.3 0.2
01/05:30pm SE 14 17 - - - - - - - 24.4 1015.2 0.2
01/05:00pm SE 13 15 - - - - - - - 24.5 1015.1 0.2
01/04:30pm ESE 10 12 - - - - - - - 24.5 1014.9 0.2
01/04:00pm SSE 16 19 - - - - - - - 24.8 1014.5 0.2
01/03:30pm SE 11 14 - - - - - - - 25.2 1014.7 0.2
01/03:00pm SE 12 13 - - - - - - - 25.2 1014.8 0.2
01/02:30pm SSE 12 13 - - - - - - - 24.9 1014.7 0.2
01/02:00pm S 13 16 - - - - - - - 23.8 1014.8 0.2
01/01:30pm SSE 13 19 - - - - - - - 23.8 1015.3 0.0
01/01:00pm S 11 17 - - - - - - - 23.8 1015.6 0.0
01/12:30pm S 14 17 - - - - - - - 22.8 1015.8 0.0
01/12:00pm S 14 18 - - - - - - - 23.2 1016.0 0.0
01/11:30am SSE 12 15 - - - - - - - 22.8 1016.4 0.0
01/11:00am SE 16 22 - - - - - - - 23.2 1016.9 0.0
01/10:30am S 15 19 - - - - - - - 24.4 1017.0 0.0
01/10:00am S 12 16 - - - - - - - 24.0 1017.1 0.0
01/09:30am S 12 16 - - - - - - - 23.5 1017.1 0.0
01/09:00am S 15 20 - - - - - - - 23.4 1017.0 0.0
01/08:30am S 14 17 - - - - - - - 23.2 1016.9 0.0
01/08:00am S 12 15 - - - - - - - 23.6 1017.0 0.0
01/07:30am S 10 14 - - - - - - - 23.2 1016.8 0.0
01/07:00am SSW 12 14 - - - - - - - 22.1 1016.5 0.0
01/06:30am SSW 10 11 - - - - - - - 22.0 1016.4 0.0
01/06:00am NNW 9 10 - - - - - - - 22.1 1016.0 0.0
01/05:30am NNW 7 8 - - - - - - - 22.4 1015.7 0.0
01/05:00am NNW 7 8 - - - - - - - 22.4 1015.4 0.0
01/04:30am NNW 6 7 - - - - - - - 22.5 1015.2 0.0
01/04:00am NNW 4 5 - - - - - - - 22.7 1015.0 0.0

Other formats

Comma delimited format used in spreadsheet applications
http://www.bom.gov.au/fwo/IDQ60701/IDQ60701.94584.axf

JavaScript Object Notation format (JSON) in row-major order
http://www.bom.gov.au/fwo/IDQ60701/IDQ60701.94584.json

Data quality

Most of these data are generated automatically and are frequently updated. Quality checks on data are not normally performed. It is possible for incorrect values to appear. Refer to information at About Latest Weather Observations and please check the disclaimer before using these data.